createdAt,value
2022-08-17T00:00:42.789Z,53.21
2022-08-17T00:03:13.654Z,53.33
2022-08-17T00:05:48.587Z,53.09
2022-08-17T00:08:23.586Z,53.57
2022-08-17T00:10:53.925Z,53.73
2022-08-17T00:13:30.896Z,53.69
2022-08-17T00:16:03.288Z,53.93
2022-08-17T00:19:01.979Z,53.76
2022-08-17T00:21:25.274Z,54.15
2022-08-17T00:23:54.598Z,53.83
2022-08-17T00:26:34.492Z,54.11
2022-08-17T00:29:19.416Z,54.50
2022-08-17T00:31:48.901Z,54.98
2022-08-17T00:34:18.874Z,55.04
2022-08-17T00:36:46.754Z,54.77
2022-08-17T00:39:14.581Z,54.84
2022-08-17T00:41:42.858Z,55.25
2022-08-17T00:44:12.140Z,55.16
2022-08-17T00:46:45.369Z,55.37
2022-08-17T00:49:15.899Z,55.66
2022-08-17T00:51:53.821Z,55.74
2022-08-17T00:54:28.559Z,56.00
2022-08-17T00:57:04.503Z,56.14
2022-08-17T00:59:44.261Z,56.16
2022-08-17T01:02:15.584Z,56.31
2022-08-17T01:04:46.179Z,56.40
2022-08-17T01:07:16.566Z,56.39
2022-08-17T01:09:44.566Z,56.68
2022-08-17T01:12:13.027Z,56.79
2022-08-17T01:14:41.551Z,56.76
2022-08-17T01:17:11.040Z,56.66
2022-08-17T01:19:42.602Z,56.96
2022-08-17T01:22:22.226Z,57.15
2022-08-17T01:24:56.389Z,57.08
2022-08-17T01:27:24.414Z,57.23
2022-08-17T01:30:00.360Z,57.29
2022-08-17T01:32:30.428Z,57.11
2022-08-17T01:35:00.697Z,57.37
2022-08-17T01:37:35.456Z,57.21
2022-08-17T01:40:09.366Z,57.19
2022-08-17T01:42:44.679Z,57.00
2022-08-17T01:45:18.340Z,57.20
2022-08-17T01:47:46.413Z,57.76
2022-08-17T01:50:18.834Z,57.68
2022-08-17T01:52:53.610Z,57.55
2022-08-17T01:55:30.938Z,57.49
2022-08-17T01:57:59.002Z,57.75
2022-08-17T02:00:28.147Z,58.13
2022-08-17T02:03:16.656Z,58.43
2022-08-17T02:05:45.197Z,58.24
2022-08-17T02:08:20.399Z,59.22
2022-08-17T02:10:50.087Z,58.58
2022-08-17T02:13:20.016Z,58.78
2022-08-17T02:15:47.966Z,59.00
2022-08-17T02:18:16.309Z,58.41
2022-08-17T02:20:44.425Z,59.04
2022-08-17T02:23:14.764Z,59.02
2022-08-17T02:25:48.500Z,59.23
2022-08-17T02:28:18.897Z,59.28
2022-08-17T02:31:01.517Z,59.60
2022-08-17T02:33:43.275Z,59.82
2022-08-17T02:36:13.395Z,60.36
2022-08-17T02:38:43.544Z,60.50
2022-08-17T02:41:13.753Z,61.08
2022-08-17T02:43:41.833Z,61.13
2022-08-17T02:46:11.045Z,61.21
2022-08-17T02:48:39.917Z,61.52
2022-08-17T02:51:08.255Z,61.08
2022-08-17T02:53:36.481Z,60.79
2022-08-17T02:56:06.461Z,61.40
2022-08-17T02:58:35.844Z,61.45
2022-08-17T03:01:05.966Z,61.67
2022-08-17T03:03:35.145Z,61.43
2022-08-17T03:06:05.482Z,61.56
2022-08-17T03:08:34.093Z,61.10
2022-08-17T03:11:02.045Z,61.43
2022-08-17T03:13:31.891Z,61.07
2022-08-17T03:15:59.768Z,61.22
2022-08-17T03:18:28.059Z,61.08
2022-08-17T03:21:00.451Z,61.19
2022-08-17T03:23:29.592Z,61.19
2022-08-17T03:26:00.275Z,60.90
2022-08-17T03:28:28.762Z,61.04
2022-08-17T03:30:58.420Z,60.97
2022-08-17T03:33:26.238Z,60.80
2022-08-17T03:35:54.568Z,61.03
2022-08-17T03:38:23.256Z,61.03
2022-08-17T03:40:57.472Z,61.03
2022-08-17T03:43:32.169Z,61.21
2022-08-17T03:46:26.982Z,61.13
2022-08-17T03:49:21.676Z,60.85
2022-08-17T03:52:08.467Z,61.80
2022-08-17T03:54:55.240Z,61.69
2022-08-17T03:57:23.292Z,61.82
2022-08-17T03:59:52.776Z,62.06
2022-08-17T04:02:28.455Z,61.99
2022-08-17T04:04:56.881Z,61.78
2022-08-17T04:07:29.187Z,61.37
2022-08-17T04:09:58.082Z,60.87
2022-08-17T04:12:30.821Z,61.16
2022-08-17T04:14:59.600Z,60.57
2022-08-17T04:17:30.840Z,60.46
2022-08-17T04:19:58.648Z,59.63
2022-08-17T04:22:30.310Z,59.96
2022-08-17T04:25:09.681Z,59.87
2022-08-17T04:27:38.840Z,59.50
2022-08-17T04:30:08.825Z,59.14
2022-08-17T04:33:05.526Z,59.61
2022-08-17T04:35:38.651Z,59.76
2022-08-17T04:38:09.460Z,59.75
2022-08-17T04:40:56.277Z,59.63
2022-08-17T04:43:29.399Z,59.87
2022-08-17T04:46:00.683Z,60.06
2022-08-17T04:48:36.338Z,59.87
2022-08-17T04:51:10.363Z,59.40
2022-08-17T04:53:40.459Z,59.23
2022-08-17T04:56:11.725Z,59.20
2022-08-17T04:58:48.027Z,58.92
2022-08-17T05:01:23.599Z,58.87
2022-08-17T05:03:56.477Z,58.44
2022-08-17T05:06:25.349Z,58.73
2022-08-17T05:08:55.112Z,58.28
2022-08-17T05:11:26.427Z,57.87
2022-08-17T05:13:56.689Z,57.82
2022-08-17T05:16:28.738Z,57.84
2022-08-17T05:18:59.190Z,57.54
2022-08-17T05:21:27.963Z,57.43
2022-08-17T05:23:58.640Z,57.39
2022-08-17T05:26:29.297Z,58.01
2022-08-17T05:29:00.610Z,57.07
2022-08-17T05:31:32.085Z,56.69
2022-08-17T05:34:01.415Z,56.65
2022-08-17T05:36:42.368Z,56.20
2022-08-17T05:39:16.892Z,55.83
2022-08-17T05:41:47.666Z,55.92
2022-08-17T05:44:17.231Z,55.57
2022-08-17T05:46:51.659Z,55.41
2022-08-17T05:49:27.660Z,55.28
2022-08-17T05:52:24.092Z,54.50
2022-08-17T05:55:10.455Z,54.11
2022-08-17T05:57:53.592Z,53.31
2022-08-17T06:00:31.170Z,52.61
2022-08-17T06:03:25.830Z,52.30
2022-08-17T06:06:25.380Z,52.08
2022-08-17T06:09:34.212Z,51.56
2022-08-17T06:12:23.638Z,51.16
2022-08-17T06:15:12.722Z,51.84
2022-08-17T06:18:01.975Z,51.12
2022-08-17T06:20:41.215Z,50.47
2022-08-17T06:23:18.228Z,50.17
2022-08-17T06:25:52.264Z,49.95
2022-08-17T06:28:29.230Z,49.58
2022-08-17T06:31:12.896Z,50.20
2022-08-17T06:33:42.651Z,49.38
2022-08-17T06:36:31.991Z,49.20
2022-08-17T06:39:23.596Z,49.47
2022-08-17T06:42:05.475Z,49.10
2022-08-17T06:44:47.576Z,49.03
2022-08-17T06:47:28.445Z,48.65
2022-08-17T06:50:15.339Z,48.99
2022-08-17T06:52:56.109Z,49.00
2022-08-17T06:55:38.315Z,49.07
2022-08-17T06:58:16.095Z,49.22
2022-08-17T07:00:47.782Z,48.56
2022-08-17T07:03:39.645Z,48.20
2022-08-17T07:06:14.597Z,47.39
2022-08-17T07:08:53.666Z,47.53
2022-08-17T07:11:30.675Z,46.93
2022-08-17T07:14:17.127Z,46.06
2022-08-17T07:16:50.633Z,45.18
2022-08-17T07:19:22.668Z,44.16
2022-08-17T07:22:01.157Z,43.19
2022-08-17T07:24:39.332Z,42.20
2022-08-17T07:27:15.089Z,42.60
2022-08-17T07:29:51.239Z,41.97
2022-08-17T07:32:26.305Z,41.80
2022-08-17T07:35:22.963Z,41.80
2022-08-17T07:38:24.820Z,41.72
2022-08-17T07:41:07.172Z,40.71
2022-08-17T07:43:47.830Z,40.58
2022-08-17T07:46:39.007Z,39.81
2022-08-17T07:49:24.291Z,39.88
2022-08-17T07:52:47.522Z,38.91
2022-08-17T07:54:56.125Z,38.94
2022-08-17T07:57:35.177Z,38.36
2022-08-17T08:00:19.728Z,38.35
2022-08-17T08:03:21.800Z,38.07
2022-08-17T08:06:02.034Z,38.88
2022-08-17T08:08:41.381Z,38.69
2022-08-17T08:11:15.107Z,38.77
2022-08-17T08:13:45.535Z,39.25
2022-08-17T08:16:29.611Z,39.22
2022-08-17T08:19:02.415Z,38.71
2022-08-17T08:21:56.403Z,38.93
2022-08-17T08:24:59.114Z,38.74
2022-08-17T08:27:44.393Z,38.67
2022-08-17T08:30:15.929Z,38.97
2022-08-17T08:33:10.604Z,39.76
2022-08-17T08:35:51.388Z,38.73
2022-08-17T08:38:37.126Z,38.75
2022-08-17T08:41:26.326Z,38.92
2022-08-17T08:44:08.363Z,38.96
2022-08-17T08:46:46.944Z,38.36
2022-08-17T08:52:53.990Z,37.57
2022-08-17T08:55:35.458Z,37.26
2022-08-17T08:58:36.246Z,37.39
2022-08-17T09:01:15.669Z,38.06
2022-08-17T09:04:24.821Z,37.89
2022-08-17T09:07:12.910Z,38.10
2022-08-17T09:09:59.394Z,36.70
2022-08-17T09:12:39.287Z,36.67
2022-08-17T09:15:17.598Z,36.32
2022-08-17T09:18:21.265Z,37.00
2022-08-17T09:20:53.190Z,36.39
2022-08-17T09:23:34.180Z,34.87
2022-08-17T09:26:11.854Z,32.65
2022-08-17T09:28:49.285Z,33.41
2022-08-17T09:31:24.021Z,32.18
2022-08-17T09:33:54.391Z,31.56
2022-08-17T09:36:29.301Z,31.84
2022-08-17T09:39:06.324Z,31.17
2022-08-17T09:41:49.238Z,29.18
2022-08-17T09:44:35.840Z,29.51
2022-08-17T09:47:15.184Z,29.36
2022-08-17T09:49:48.387Z,29.39
2022-08-17T09:52:21.902Z,28.24
2022-08-17T09:54:57.569Z,29.08
2022-08-17T09:57:50.412Z,28.76
2022-08-17T10:00:27.462Z,29.91
2022-08-17T10:03:26.505Z,29.02
2022-08-17T10:06:08.219Z,28.56
2022-08-17T10:08:46.678Z,29.00
2022-08-17T10:11:48.268Z,28.01
2022-08-17T10:14:37.723Z,29.61
2022-08-17T10:17:24.583Z,28.79
2022-08-17T10:20:06.569Z,29.39
2022-08-17T10:23:05.469Z,28.90
2022-08-17T10:26:00.685Z,28.99
2022-08-17T10:28:39.429Z,30.18
2022-08-17T10:34:52.478Z,30.31
2022-08-17T10:37:48.932Z,30.09
2022-08-17T10:40:34.234Z,31.14
2022-08-17T10:43:26.823Z,31.38
2022-08-17T10:46:30.562Z,30.69
2022-08-17T10:49:29.335Z,31.49
2022-08-17T10:52:00.700Z,31.63
2022-08-17T10:55:07.883Z,31.13
2022-08-17T10:57:41.764Z,31.87
2022-08-17T11:00:52.592Z,30.63
2022-08-17T11:03:26.129Z,30.49
2022-08-17T11:06:13.990Z,29.92
2022-08-17T11:09:14.593Z,31.52
2022-08-17T11:12:02.762Z,30.24
2022-08-17T11:14:54.764Z,31.55
2022-08-17T11:17:53.445Z,30.04
2022-08-17T11:21:03.502Z,30.50
2022-08-17T11:24:01.400Z,32.45
2022-08-17T11:26:33.993Z,31.54
2022-08-17T11:29:09.158Z,31.49
2022-08-17T11:31:43.486Z,30.83
2022-08-17T11:34:21.185Z,30.69
2022-08-17T11:37:15.732Z,31.73
2022-08-17T11:40:13.476Z,29.65
2022-08-17T11:43:25.569Z,30.15
2022-08-17T11:46:16.842Z,31.21
2022-08-17T11:49:20.751Z,31.27
2022-08-17T11:52:37.307Z,29.97
2022-08-17T11:55:33.861Z,30.91
2022-08-17T11:58:26.501Z,30.82
2022-08-17T12:00:58.617Z,30.08
2022-08-17T12:03:53.821Z,30.16
2022-08-17T12:06:45.415Z,30.69
2022-08-17T12:09:24.428Z,29.94
2022-08-17T12:12:13.224Z,30.12
2022-08-17T12:15:09.741Z,30.61
2022-08-17T12:17:43.051Z,30.56
2022-08-17T12:20:22.013Z,30.95
2022-08-17T12:23:03.969Z,30.82
2022-08-17T12:25:40.766Z,31.37
2022-08-17T12:28:26.707Z,31.19
2022-08-17T12:31:01.490Z,32.57
2022-08-17T12:33:29.862Z,33.54
2022-08-17T12:36:05.776Z,32.28
2022-08-17T12:38:37.619Z,31.90
2022-08-17T12:41:28.525Z,32.26
2022-08-17T12:44:04.423Z,32.43
2022-08-17T12:46:51.457Z,32.00
2022-08-17T12:49:27.373Z,31.21
2022-08-17T12:52:17.617Z,31.48
2022-08-17T12:54:55.664Z,31.63
2022-08-17T12:57:33.379Z,32.19
2022-08-17T13:00:10.900Z,32.12
2022-08-17T13:02:46.351Z,33.46
2022-08-17T13:05:35.931Z,34.73
2022-08-17T13:08:16.174Z,34.50
2022-08-17T13:10:56.451Z,35.15
2022-08-17T13:13:31.611Z,36.71
2022-08-17T13:16:03.416Z,37.01
2022-08-17T13:18:51.727Z,37.34
2022-08-17T13:21:30.536Z,38.15
2022-08-17T13:24:02.138Z,38.47
2022-08-17T13:26:37.546Z,38.71
2022-08-17T13:29:20.758Z,38.51
2022-08-17T13:31:56.385Z,38.60
2022-08-17T13:35:11.814Z,38.96
2022-08-17T13:37:34.519Z,39.06
2022-08-17T13:40:32.146Z,39.79
2022-08-17T13:43:00.199Z,39.58
2022-08-17T13:45:43.395Z,38.96
2022-08-17T13:48:26.718Z,39.87
2022-08-17T13:51:20.249Z,39.36
2022-08-17T13:54:00.532Z,38.11
2022-08-17T13:56:39.534Z,37.81
2022-08-17T13:59:13.626Z,37.25
2022-08-17T14:01:52.801Z,35.94
2022-08-17T14:04:26.414Z,35.71
2022-08-17T14:06:59.544Z,35.03
2022-08-17T14:09:37.042Z,34.67
2022-08-17T14:12:19.682Z,33.27
2022-08-17T14:14:49.481Z,31.91
2022-08-17T14:17:19.431Z,31.33
2022-08-17T14:19:48.071Z,30.72
2022-08-17T14:22:23.657Z,29.75
2022-08-17T14:24:51.909Z,30.02
2022-08-17T14:27:21.523Z,27.94
2022-08-17T14:29:49.372Z,29.31
2022-08-17T14:32:26.886Z,29.57
2022-08-17T14:34:57.545Z,29.27
2022-08-17T14:37:27.996Z,31.26
2022-08-17T14:39:59.767Z,30.44
2022-08-17T14:42:33.007Z,29.24
2022-08-17T14:45:06.147Z,29.07
2022-08-17T14:47:55.266Z,28.46
2022-08-17T14:50:23.758Z,28.98
2022-08-17T14:52:52.262Z,26.67
2022-08-17T14:55:21.499Z,27.31
2022-08-17T14:57:49.527Z,26.92
2022-08-17T15:00:18.060Z,28.31
2022-08-17T15:02:53.592Z,28.62
2022-08-17T15:05:27.353Z,28.94
2022-08-17T15:07:56.717Z,29.09
2022-08-17T15:10:25.859Z,28.36
2022-08-17T15:12:56.090Z,28.47
2022-08-17T15:15:24.415Z,29.60
2022-08-17T15:17:52.556Z,29.75
2022-08-17T15:20:27.816Z,30.63
2022-08-17T15:22:58.647Z,32.58
2022-08-17T15:25:30.242Z,33.52
2022-08-17T15:28:00.759Z,34.71
2022-08-17T15:30:30.658Z,36.04
2022-08-17T15:33:00.759Z,37.34
2022-08-17T15:35:33.854Z,38.29
2022-08-17T15:38:11.264Z,39.36
2022-08-17T15:40:43.091Z,40.54
2022-08-17T15:43:14.737Z,41.11
2022-08-17T15:45:42.960Z,42.63
2022-08-17T15:48:11.302Z,43.31
2022-08-17T15:50:41.174Z,44.26
2022-08-17T15:53:10.403Z,45.14
2022-08-17T15:55:43.022Z,45.55
2022-08-17T15:58:10.912Z,46.07
2022-08-17T16:00:52.966Z,46.48
2022-08-17T16:03:59.273Z,46.52
2022-08-17T16:06:13.651Z,46.59
2022-08-17T16:08:44.512Z,45.99
2022-08-17T16:11:15.064Z,45.27
2022-08-17T16:13:54.538Z,43.52
2022-08-17T16:16:23.709Z,43.79
2022-08-17T16:18:54.528Z,43.69
2022-08-17T16:21:42.728Z,43.69
2022-08-17T16:24:13.655Z,44.50
2022-08-17T16:26:43.236Z,45.00
2022-08-17T16:29:11.582Z,45.24
2022-08-17T16:31:40.545Z,46.32
2022-08-17T16:34:18.025Z,46.05
2022-08-17T16:36:55.221Z,46.70
2022-08-17T16:39:27.287Z,47.17
2022-08-17T16:41:56.525Z,47.08
2022-08-17T16:44:27.367Z,47.45
2022-08-17T16:46:55.878Z,47.99
2022-08-17T16:49:36.918Z,47.83
2022-08-17T16:52:10.379Z,48.00
2022-08-17T16:54:43.445Z,48.25
2022-08-17T16:57:14.282Z,48.52
2022-08-17T16:59:47.812Z,48.69
2022-08-17T17:02:24.849Z,48.89
2022-08-17T17:05:03.225Z,49.09
2022-08-17T17:07:53.438Z,49.31
2022-08-17T17:10:28.340Z,50.13
2022-08-17T17:13:02.745Z,50.11
2022-08-17T17:15:46.266Z,50.23
2022-08-17T17:18:16.869Z,50.42
2022-08-17T17:20:55.294Z,50.93
2022-08-17T17:23:40.571Z,50.38
2022-08-17T17:26:48.298Z,50.25
2022-08-17T17:29:46.491Z,50.63
2022-08-17T17:32:25.458Z,50.18
2022-08-17T17:35:11.736Z,50.60
2022-08-17T17:37:44.762Z,51.13
2022-08-17T17:40:22.918Z,51.04
2022-08-17T17:42:55.309Z,51.71
2022-08-17T17:45:31.200Z,52.25
2022-08-17T17:47:59.170Z,52.06
2022-08-17T17:50:38.358Z,52.02
2022-08-17T17:53:18.544Z,51.77
2022-08-17T17:56:06.957Z,52.17
2022-08-17T17:59:01.499Z,52.03
2022-08-17T18:01:48.743Z,52.32
2022-08-17T18:04:26.612Z,51.93
2022-08-17T18:07:19.393Z,52.63
2022-08-17T18:10:29.506Z,52.69
2022-08-17T18:13:16.463Z,52.99
2022-08-17T18:15:54.056Z,53.22
2022-08-17T18:18:37.638Z,53.14
2022-08-17T18:21:19.587Z,53.14
2022-08-17T18:23:57.796Z,53.41
2022-08-17T18:26:45.082Z,53.51
2022-08-17T18:29:32.333Z,53.28
2022-08-17T18:32:19.341Z,53.49
2022-08-17T18:34:51.600Z,53.73
2022-08-17T18:37:49.018Z,53.68
2022-08-17T18:40:32.647Z,54.32
2022-08-17T18:43:09.159Z,53.87
2022-08-17T18:45:45.801Z,53.57
2022-08-17T18:48:30.191Z,53.44
2022-08-17T18:51:21.158Z,53.59
2022-08-17T18:54:14.123Z,53.60
2022-08-17T18:56:48.176Z,53.72
2022-08-17T18:59:29.008Z,54.10
2022-08-17T19:05:24.733Z,54.37
2022-08-17T19:07:53.247Z,54.83
2022-08-17T19:10:28.700Z,55.62
2022-08-17T19:13:12.765Z,55.81
2022-08-17T19:16:13.955Z,56.40
2022-08-17T19:18:46.184Z,55.94
2022-08-17T19:21:31.310Z,55.56
2022-08-17T19:24:12.050Z,56.21
2022-08-17T19:26:54.532Z,56.37
2022-08-17T19:29:32.270Z,56.16
2022-08-17T19:32:02.525Z,56.37
2022-08-17T19:34:34.977Z,56.86
2022-08-17T19:37:27.178Z,56.80
2022-08-17T19:40:24.387Z,56.67
2022-08-17T19:43:10.576Z,56.77
2022-08-17T19:45:58.171Z,57.05
2022-08-17T19:48:51.374Z,57.91
2022-08-17T19:51:33.919Z,58.77
2022-08-17T19:54:15.034Z,58.77
2022-08-17T19:56:56.447Z,59.04
2022-08-17T19:59:48.875Z,59.09
2022-08-17T20:02:33.555Z,59.40
2022-08-17T20:05:13.352Z,59.72
2022-08-17T20:07:54.082Z,60.03
2022-08-17T20:10:36.436Z,59.71
2022-08-17T20:13:14.900Z,59.77
2022-08-17T20:15:47.067Z,60.75
2022-08-17T20:18:24.747Z,60.39
2022-08-17T20:21:00.504Z,60.63
2022-08-17T20:23:50.518Z,61.32
2022-08-17T20:26:26.419Z,61.51
2022-08-17T20:29:49.626Z,62.06
2022-08-17T20:32:28.584Z,62.28
2022-08-17T20:35:19.680Z,62.44
2022-08-17T20:37:57.354Z,62.85
2022-08-17T20:40:35.150Z,62.86
2022-08-17T20:43:51.002Z,62.83
2022-08-17T20:46:41.392Z,63.01
2022-08-17T20:49:30.585Z,63.09
2022-08-17T20:52:07.572Z,63.73
2022-08-17T20:54:48.238Z,63.48
2022-08-17T20:57:48.756Z,63.97
2022-08-17T21:00:50.063Z,63.19
2022-08-17T21:03:49.192Z,64.20
2022-08-17T21:06:25.617Z,63.75
2022-08-17T21:09:18.633Z,63.91
2022-08-17T21:12:05.513Z,63.79
2022-08-17T21:14:57.983Z,64.13
2022-08-17T21:17:42.137Z,64.51
2022-08-17T21:20:32.328Z,64.74
2022-08-17T21:23:37.259Z,65.00
2022-08-17T21:26:31.179Z,65.39
2022-08-17T21:29:31.547Z,64.99
2022-08-17T21:32:23.709Z,65.61
2022-08-17T21:35:28.839Z,66.19
2022-08-17T21:38:04.862Z,65.89
2022-08-17T21:40:34.350Z,66.41
2022-08-17T21:43:24.028Z,66.34
2022-08-17T21:46:01.964Z,66.77
2022-08-17T21:48:41.992Z,66.78
2022-08-17T21:51:22.733Z,66.33
2022-08-17T21:53:56.912Z,67.02
2022-08-17T21:56:30.845Z,68.01
2022-08-17T21:59:05.338Z,68.45
2022-08-17T22:01:38.626Z,68.67
2022-08-17T22:04:20.685Z,68.98
2022-08-17T22:06:57.111Z,69.17
2022-08-17T22:09:31.489Z,69.30
2022-08-17T22:12:07.673Z,69.33
2022-08-17T22:14:53.190Z,69.02
2022-08-17T22:17:26.143Z,69.88
2022-08-17T22:19:59.646Z,69.04
2022-08-17T22:22:57.099Z,68.72
2022-08-17T22:25:29.481Z,69.33
2022-08-17T22:28:01.950Z,69.95
2022-08-17T22:30:37.147Z,69.86
2022-08-17T22:33:29.818Z,71.34
2022-08-17T22:36:20.236Z,71.56
2022-08-17T22:38:52.353Z,72.06
2022-08-17T22:41:52.562Z,72.21
2022-08-17T22:44:27.411Z,71.98
2022-08-17T22:47:01.709Z,71.02
2022-08-17T22:49:38.461Z,71.74
2022-08-17T22:52:32.702Z,71.05
2022-08-17T22:55:26.307Z,71.61
2022-08-17T22:58:14.234Z,72.28
2022-08-17T23:00:46.993Z,72.68
2022-08-17T23:03:19.997Z,73.28
2022-08-17T23:06:03.887Z,73.12
2022-08-17T23:08:35.527Z,73.27
2022-08-17T23:11:06.242Z,73.69
2022-08-17T23:13:37.194Z,73.65
2022-08-17T23:16:05.054Z,74.10
2022-08-17T23:18:32.876Z,75.06
2022-08-17T23:21:03.749Z,76.04
2022-08-17T23:23:31.602Z,75.88
2022-08-17T23:25:59.469Z,75.27
2022-08-17T23:28:28.438Z,74.29
2022-08-17T23:30:58.216Z,72.89
2022-08-17T23:33:30.900Z,72.49
2022-08-17T23:35:58.795Z,72.59
2022-08-17T23:38:27.680Z,73.57
2022-08-17T23:40:59.975Z,73.52
2022-08-17T23:43:31.470Z,73.50
2022-08-17T23:46:03.603Z,74.90
2022-08-17T23:48:36.271Z,75.71
2022-08-17T23:51:12.282Z,76.28
2022-08-17T23:53:47.565Z,76.35
2022-08-17T23:56:17.989Z,75.50
2022-08-17T23:58:45.793Z,76.34
